createdAt,value
2023-01-04T00:00:29.569Z,14.63
2023-01-04T00:05:33.016Z,13.87
2023-01-04T00:10:37.899Z,15.03
2023-01-04T00:15:41.412Z,14.17
2023-01-04T00:20:44.914Z,15.07
2023-01-04T00:25:49.771Z,15.00
2023-01-04T00:30:53.324Z,16.13
2023-01-04T00:35:56.836Z,15.90
2023-01-04T00:41:02.146Z,15.47
2023-01-04T00:46:07.188Z,15.63
2023-01-04T00:51:10.625Z,15.07
2023-01-04T00:56:15.480Z,16.60
2023-01-04T01:01:18.982Z,16.97
2023-01-04T01:06:24.934Z,16.33
2023-01-04T01:11:31.031Z,15.77
2023-01-04T01:22:01.214Z,15.60
2023-01-04T01:27:06.156Z,15.43
2023-01-04T01:32:09.592Z,16.37
2023-01-04T01:37:13.048Z,17.40
2023-01-04T01:42:24.590Z,16.20
2023-01-04T01:47:36.793Z,15.60
2023-01-04T01:52:41.713Z,16.00
2023-01-04T01:57:48.676Z,15.93
2023-01-04T02:03:00.648Z,16.40
2023-01-04T02:08:05.429Z,16.67
2023-01-04T02:13:15.164Z,16.20
2023-01-04T02:18:26.784Z,16.43
2023-01-04T02:24:04.253Z,15.70
2023-01-04T02:29:39.014Z,15.17
2023-01-04T02:34:58.306Z,13.43
2023-01-04T02:40:15.387Z,14.10
2023-01-04T02:45:23.500Z,13.50
2023-01-04T02:50:36.132Z,12.57
2023-01-04T02:55:53.056Z,12.57
2023-01-04T03:01:37.182Z,12.97
2023-01-04T03:06:50.822Z,12.23
2023-01-04T03:12:16.889Z,14.90
2023-01-04T03:17:24.018Z,12.83
2023-01-04T03:22:52.731Z,13.97
2023-01-04T03:28:16.963Z,13.17
2023-01-04T03:33:49.818Z,12.77
2023-01-04T03:39:19.034Z,13.03
2023-01-04T03:44:45.168Z,13.33
2023-01-04T03:49:57.753Z,12.53
2023-01-04T03:55:04.902Z,12.63
2023-01-04T04:00:12.504Z,12.20
2023-01-04T04:05:36.676Z,13.23
2023-01-04T04:10:41.540Z,11.67
2023-01-04T04:15:45.043Z,13.27
2023-01-04T04:20:48.518Z,12.83
2023-01-04T04:25:53.392Z,13.60
2023-01-04T04:30:56.825Z,12.23
2023-01-04T04:36:00.315Z,12.60
2023-01-04T04:41:27.788Z,12.17
2023-01-04T04:46:31.235Z,12.40
2023-01-04T04:51:34.824Z,12.33
2023-01-04T04:56:39.911Z,11.57
2023-01-04T05:01:43.731Z,12.20
2023-01-04T05:06:49.392Z,13.20
2023-01-04T05:12:11.439Z,13.60
2023-01-04T05:17:14.886Z,12.10
2023-01-04T05:22:18.417Z,11.00
2023-01-04T05:27:23.314Z,9.30
2023-01-04T05:32:26.857Z,8.80
2023-01-04T05:37:30.467Z,8.93
2023-01-04T05:42:35.386Z,9.10
2023-01-04T05:47:38.936Z,5.53
2023-01-04T05:52:42.413Z,5.10
2023-01-04T05:57:47.606Z,5.40
2023-01-04T06:02:52.744Z,5.53
2023-01-04T06:07:56.225Z,7.17
2023-01-04T06:13:01.229Z,8.43
2023-01-04T06:18:08.738Z,8.10
2023-01-04T06:23:16.529Z,6.93
2023-01-04T06:28:21.422Z,3.67
2023-01-04T06:33:24.835Z,3.57
2023-01-04T06:38:28.673Z,4.00
2023-01-04T06:43:33.520Z,3.60
2023-01-04T06:48:36.939Z,4.87
2023-01-04T06:53:40.315Z,4.23
2023-01-04T06:58:45.344Z,5.17
2023-01-04T07:03:51.499Z,3.90
2023-01-04T07:08:56.309Z,3.47
2023-01-04T07:14:01.257Z,3.90
2023-01-04T07:19:04.873Z,3.90
2023-01-04T07:24:08.319Z,3.70
2023-01-04T07:29:15.852Z,4.20
2023-01-04T07:34:21.267Z,4.37
2023-01-04T07:39:24.981Z,4.50
2023-01-04T07:44:29.802Z,5.70
2023-01-04T07:49:33.828Z,4.40
2023-01-04T07:54:37.396Z,4.30
2023-01-04T07:59:49.809Z,4.03
2023-01-04T08:04:53.207Z,4.23
2023-01-04T08:09:56.570Z,3.70
2023-01-04T08:15:01.460Z,3.80
2023-01-04T08:20:05.439Z,3.40
2023-01-04T08:25:09.399Z,3.60
2023-01-04T08:30:14.287Z,3.37
2023-01-04T08:35:17.854Z,2.97
2023-01-04T08:40:21.229Z,3.03
2023-01-04T08:45:26.145Z,3.47
2023-01-04T08:50:29.541Z,4.00
2023-01-04T08:55:32.956Z,3.10
2023-01-04T09:00:37.798Z,2.40
2023-01-04T09:05:41.616Z,2.70
2023-01-04T09:10:44.997Z,3.10
2023-01-04T09:15:49.886Z,3.53
2023-01-04T09:20:53.358Z,2.87
2023-01-04T09:25:56.890Z,2.90
2023-01-04T09:31:06.699Z,3.10
2023-01-04T09:36:12.356Z,2.20
2023-01-04T09:41:23.681Z,2.70
2023-01-04T09:46:34.191Z,2.77
2023-01-04T09:51:40.295Z,3.30
2023-01-04T09:56:50.691Z,2.50
2023-01-04T10:02:00.264Z,2.60
2023-01-04T10:07:05.362Z,2.07
2023-01-04T10:12:19.628Z,1.60
2023-01-04T10:23:09.493Z,1.80
2023-01-04T10:28:30.868Z,1.90
2023-01-04T10:33:44.240Z,1.40
2023-01-04T10:38:48.030Z,1.63
2023-01-04T10:44:10.859Z,1.37
2023-01-04T10:49:25.095Z,1.20
2023-01-04T10:54:34.691Z,1.20
2023-01-04T10:59:44.416Z,1.10
2023-01-04T11:04:58.835Z,1.33
2023-01-04T11:10:08.136Z,1.10
2023-01-04T11:15:12.213Z,2.73
2023-01-04T11:20:17.259Z,1.20
2023-01-04T11:25:38.764Z,0.93
2023-01-04T11:30:50.270Z,1.30
2023-01-04T11:35:59.040Z,1.40
2023-01-04T11:41:06.000Z,1.47
2023-01-04T11:46:24.645Z,1.40
2023-01-04T11:51:41.593Z,1.40
2023-01-04T11:57:03.645Z,1.30
2023-01-04T12:02:50.408Z,1.37
2023-01-04T12:07:45.706Z,1.00
2023-01-04T12:12:49.516Z,1.30
2023-01-04T12:17:57.480Z,2.10
2023-01-04T12:23:02.529Z,1.53
2023-01-04T12:28:06.984Z,1.50
2023-01-04T12:33:39.849Z,1.67
2023-01-04T12:39:05.130Z,1.53
2023-01-04T12:44:51.996Z,1.50
2023-01-04T12:50:03.135Z,1.70
2023-01-04T12:55:27.439Z,1.70
2023-01-04T13:01:04.666Z,1.70
2023-01-04T13:06:08.764Z,1.80
2023-01-04T13:11:42.008Z,1.90
2023-01-04T13:16:54.934Z,1.50
2023-01-04T13:21:58.820Z,1.93
2023-01-04T13:27:10.480Z,1.90
2023-01-04T13:32:16.636Z,1.77
2023-01-04T13:37:33.131Z,1.40
2023-01-04T13:42:41.855Z,1.50
2023-01-04T13:47:46.663Z,1.07
2023-01-04T13:53:03.652Z,1.13
2023-01-04T13:58:18.764Z,1.10
2023-01-04T14:03:42.844Z,1.20
2023-01-04T14:08:52.432Z,1.10
2023-01-04T14:13:57.375Z,1.60
2023-01-04T14:19:20.923Z,1.30
2023-01-04T14:25:08.409Z,1.10
2023-01-04T14:29:59.772Z,1.30
2023-01-04T14:35:22.054Z,1.23
2023-01-04T14:40:28.363Z,1.20
2023-01-04T14:45:33.305Z,1.50
2023-01-04T14:50:36.793Z,2.00
2023-01-04T14:55:40.708Z,2.10
2023-01-04T15:00:47.312Z,1.80
2023-01-04T15:05:50.858Z,2.17
2023-01-04T15:10:59.794Z,1.53
2023-01-04T15:16:05.324Z,1.40
2023-01-04T15:21:09.518Z,1.80
2023-01-04T15:26:13.511Z,1.87
2023-01-04T15:31:21.039Z,1.87
2023-01-04T15:36:29.420Z,1.13
2023-01-04T15:41:50.382Z,1.70
2023-01-04T15:46:56.755Z,2.40
2023-01-04T15:52:00.349Z,2.10
2023-01-04T15:57:03.746Z,2.00
2023-01-04T16:02:11.212Z,2.00
2023-01-04T16:07:14.676Z,2.23
2023-01-04T16:12:35.661Z,2.30
2023-01-04T16:17:40.860Z,2.37
2023-01-04T16:22:44.481Z,2.17
2023-01-04T16:27:47.896Z,2.10
2023-01-04T16:32:52.830Z,2.83
2023-01-04T16:37:56.505Z,2.33
2023-01-04T16:42:59.922Z,3.20
2023-01-04T16:48:05.723Z,2.40
2023-01-04T16:53:09.501Z,2.70
2023-01-04T16:58:13.866Z,1.70
2023-01-04T17:03:18.782Z,2.10
2023-01-04T17:08:26.975Z,4.07
2023-01-04T17:13:30.812Z,4.47
2023-01-04T17:18:36.668Z,3.40
2023-01-04T17:23:42.798Z,2.77
2023-01-04T17:28:47.384Z,2.80
2023-01-04T17:33:53.278Z,3.47
2023-01-04T17:38:57.346Z,3.40
2023-01-04T17:44:02.387Z,2.40
2023-01-04T17:49:22.223Z,2.30
2023-01-04T17:54:28.510Z,2.10
2023-01-04T17:59:32.591Z,9.07
2023-01-04T18:04:38.672Z,6.13
2023-01-04T18:09:42.833Z,4.53
2023-01-04T18:14:49.376Z,3.90
2023-01-04T18:19:55.644Z,4.23
2023-01-04T18:25:00.366Z,4.07
2023-01-04T18:30:05.026Z,4.03
2023-01-04T18:35:12.410Z,4.37
2023-01-04T18:40:16.668Z,4.07
2023-01-04T18:45:22.285Z,4.80
2023-01-04T18:50:32.030Z,4.17
2023-01-04T18:55:39.784Z,4.60
2023-01-04T19:00:45.250Z,4.73
2023-01-04T19:05:51.159Z,5.50
2023-01-04T19:10:56.051Z,5.77
2023-01-04T19:16:00.950Z,4.70
2023-01-04T19:21:07.306Z,5.30
2023-01-04T19:26:12.118Z,4.73
2023-01-04T19:31:20.514Z,4.83
2023-01-04T19:36:26.542Z,4.90
2023-01-04T19:41:35.023Z,5.17
2023-01-04T19:46:41.420Z,6.83
2023-01-04T19:51:49.504Z,11.50
2023-01-04T19:56:54.255Z,6.53
2023-01-04T20:02:02.167Z,5.30
2023-01-04T20:07:09.219Z,4.70
2023-01-04T20:12:14.187Z,4.27
2023-01-04T20:17:18.380Z,4.57
2023-01-04T20:22:25.865Z,15.43
2023-01-04T20:27:30.903Z,5.93
2023-01-04T20:32:37.865Z,4.80
2023-01-04T20:37:44.789Z,4.50
2023-01-04T20:43:06.255Z,4.37
2023-01-04T20:48:10.603Z,4.73
2023-01-04T20:53:16.723Z,5.20
2023-01-04T20:58:21.963Z,5.30
2023-01-04T21:03:26.239Z,5.50
2023-01-04T21:08:32.826Z,5.40
2023-01-04T21:13:37.371Z,5.20
2023-01-04T21:18:41.825Z,4.37
2023-01-04T21:23:51.793Z,4.63
2023-01-04T21:28:58.219Z,3.97
2023-01-04T21:34:05.494Z,4.20
2023-01-04T21:39:13.270Z,4.10
2023-01-04T21:44:16.937Z,4.73
2023-01-04T21:49:20.413Z,6.93
2023-01-04T21:54:25.889Z,4.60
2023-01-04T21:59:29.326Z,4.93
2023-01-04T22:04:33.386Z,4.73
2023-01-04T22:09:38.309Z,4.23
2023-01-04T22:14:41.764Z,4.27
2023-01-04T22:19:45.279Z,4.30
2023-01-04T22:24:50.143Z,4.70
2023-01-04T22:29:53.535Z,4.23
2023-01-04T22:34:56.959Z,4.40
2023-01-04T22:40:01.842Z,5.50
2023-01-04T22:45:12.816Z,4.40
2023-01-04T22:50:16.934Z,4.90
2023-01-04T22:55:22.252Z,4.73
2023-01-04T23:00:25.957Z,4.50
2023-01-04T23:05:29.394Z,4.83
2023-01-04T23:10:36.104Z,4.27
2023-01-04T23:15:39.761Z,6.10
2023-01-04T23:20:43.186Z,4.50
2023-01-04T23:25:48.048Z,4.10
2023-01-04T23:30:51.773Z,4.43
2023-01-04T23:35:55.275Z,4.07
2023-01-04T23:41:00.167Z,4.43
2023-01-04T23:46:07.398Z,4.20
2023-01-04T23:51:11.323Z,4.67
2023-01-04T23:56:17.250Z,4.00
